createdAt,value
2018-05-04T00:00:13.422Z,70.68
2018-05-04T00:02:42.204Z,70.89
2018-05-04T00:05:10.516Z,71.03
2018-05-04T00:07:38.853Z,71.11
2018-05-04T00:10:07.970Z,71.08
2018-05-04T00:12:36.304Z,71.01
2018-05-04T00:15:04.604Z,70.92
2018-05-04T00:17:32.957Z,71.29
2018-05-04T00:20:01.292Z,71.60
2018-05-04T00:22:29.655Z,71.74
2018-05-04T00:24:58.037Z,71.58
2018-05-04T00:27:26.365Z,71.66
2018-05-04T00:29:54.691Z,72.00
2018-05-04T00:32:24.523Z,71.93
2018-05-04T00:34:52.848Z,71.72
2018-05-04T00:37:21.204Z,71.56
2018-05-04T00:39:49.579Z,71.71
2018-05-04T00:42:17.928Z,72.00
2018-05-04T00:44:46.296Z,72.10
2018-05-04T00:47:14.816Z,72.19
2018-05-04T00:49:43.131Z,72.21
2018-05-04T00:52:11.616Z,72.24
2018-05-04T00:54:39.976Z,72.32
2018-05-04T00:57:08.313Z,72.49
2018-05-04T00:59:36.640Z,72.96
2018-05-04T01:02:05.985Z,73.08
2018-05-04T01:04:34.332Z,72.85
2018-05-04T01:07:02.667Z,73.02
2018-05-04T01:09:31.126Z,73.36
2018-05-04T01:11:59.492Z,73.81
2018-05-04T01:14:27.817Z,73.58
2018-05-04T01:16:56.540Z,73.82
2018-05-04T01:19:24.976Z,74.20
2018-05-04T01:21:53.297Z,74.25
2018-05-04T01:24:22.335Z,74.63
2018-05-04T01:26:50.823Z,74.64
2018-05-04T01:29:19.407Z,75.72
2018-05-04T01:31:49.207Z,76.51
2018-05-04T01:34:18.279Z,76.79
2018-05-04T01:36:47.054Z,77.25
2018-05-04T01:39:15.435Z,77.59
2018-05-04T01:41:43.829Z,78.02
2018-05-04T01:44:12.473Z,78.24
2018-05-04T01:46:43.085Z,78.46
2018-05-04T01:49:12.428Z,78.21
2018-05-04T01:51:40.945Z,78.03
2018-05-04T01:54:10.728Z,77.98
2018-05-04T01:56:39.342Z,77.67
2018-05-04T01:59:07.863Z,77.87
2018-05-04T02:01:36.222Z,76.95
2018-05-04T02:04:04.630Z,76.61
2018-05-04T02:06:33.053Z,76.12
2018-05-04T02:09:02.384Z,75.36
2018-05-04T02:11:30.862Z,76.11
2018-05-04T02:13:59.741Z,77.03
2018-05-04T02:16:28.336Z,77.46
2018-05-04T02:18:57.538Z,77.57
2018-05-04T02:21:26.285Z,77.69
2018-05-04T02:23:56.136Z,77.65
2018-05-04T02:26:25.799Z,77.74
2018-05-04T02:28:54.193Z,77.85
2018-05-04T02:31:22.576Z,78.01
2018-05-04T02:33:52.328Z,77.92
2018-05-04T02:36:21.072Z,78.04
2018-05-04T02:38:49.674Z,78.08
2018-05-04T02:41:21.128Z,78.05
2018-05-04T02:43:50.804Z,77.94
2018-05-04T02:46:20.233Z,77.67
2018-05-04T02:48:52.708Z,77.61
2018-05-04T02:51:21.348Z,77.66
2018-05-04T02:53:51.228Z,77.68
2018-05-04T02:56:20.694Z,77.61
2018-05-04T02:58:50.255Z,77.64
2018-05-04T03:01:19.059Z,77.56
2018-05-04T03:03:49.483Z,77.62
2018-05-04T03:06:19.171Z,77.03
2018-05-04T03:08:49.487Z,76.56
2018-05-04T03:11:18.060Z,75.68
2018-05-04T03:13:46.470Z,74.85
2018-05-04T03:16:14.824Z,75.06
2018-05-04T03:18:43.240Z,75.92
2018-05-04T03:21:11.820Z,77.13
2018-05-04T03:23:42.148Z,77.71
2018-05-04T03:26:10.478Z,78.18
2018-05-04T03:28:39.403Z,78.44
2018-05-04T03:31:08.642Z,78.46
2018-05-04T03:33:37.077Z,78.55
2018-05-04T03:36:05.599Z,78.48
2018-05-04T03:38:33.940Z,78.68
2018-05-04T03:41:03.561Z,78.25
2018-05-04T03:43:33.886Z,78.30
2018-05-04T03:46:02.233Z,78.42
2018-05-04T03:48:30.572Z,78.28
2018-05-04T03:50:58.888Z,78.49
2018-05-04T03:53:27.264Z,78.40
2018-05-04T03:55:55.676Z,78.11
2018-05-04T03:58:35.905Z,78.11
2018-05-04T04:01:16.461Z,78.08
2018-05-04T04:03:57.711Z,77.90
2018-05-04T04:06:26.116Z,77.71
2018-05-04T04:08:55.417Z,77.71
2018-05-04T04:11:24.591Z,77.83
2018-05-04T04:13:53.476Z,77.70
2018-05-04T04:16:22.736Z,77.68
2018-05-04T04:18:51.394Z,77.56
2018-05-04T04:21:22.245Z,77.82
2018-05-04T04:23:52.468Z,78.05
2018-05-04T04:26:22.570Z,77.92
2018-05-04T04:28:51.909Z,78.32
2018-05-04T04:31:21.856Z,78.73
2018-05-04T04:33:50.817Z,78.93
2018-05-04T04:36:21.087Z,78.67
2018-05-04T04:38:50.179Z,78.43
2018-05-04T04:41:19.718Z,78.38
2018-05-04T04:43:49.296Z,78.52
2018-05-04T04:46:17.729Z,77.85
2018-05-04T04:48:46.056Z,77.85
2018-05-04T04:51:15.515Z,77.70
2018-05-04T04:53:44.152Z,77.62
2018-05-04T04:56:12.674Z,77.68
2018-05-04T04:58:41.937Z,77.71
2018-05-04T05:01:10.412Z,77.41
2018-05-04T05:03:38.780Z,77.34
2018-05-04T05:06:07.156Z,77.33
2018-05-04T05:08:35.542Z,77.05
2018-05-04T05:11:03.873Z,76.40
2018-05-04T05:13:32.283Z,76.41
2018-05-04T05:16:00.651Z,76.17
2018-05-04T05:18:29.122Z,75.74
2018-05-04T05:20:57.631Z,75.26
2018-05-04T05:23:26.386Z,74.85
2018-05-04T05:25:55.531Z,74.70
2018-05-04T05:28:25.277Z,74.66
2018-05-04T05:30:54.260Z,74.61
2018-05-04T05:33:22.646Z,74.79
2018-05-04T05:35:51.104Z,74.71
2018-05-04T05:38:20.286Z,74.91
2018-05-04T05:40:48.818Z,74.90
2018-05-04T05:43:17.383Z,74.45
2018-05-04T05:45:46.631Z,73.98
2018-05-04T05:48:15.481Z,73.87
2018-05-04T05:50:47.873Z,73.37
2018-05-04T05:53:18.617Z,72.91
2018-05-04T05:55:49.925Z,72.66
2018-05-04T05:58:20.323Z,71.89
2018-05-04T06:03:26.275Z,70.37
2018-05-04T06:05:55.962Z,69.59
2018-05-04T06:08:24.416Z,68.79
2018-05-04T06:10:54.397Z,69.03
2018-05-04T06:13:24.386Z,69.31
2018-05-04T06:15:52.857Z,68.70
2018-05-04T06:18:21.196Z,67.62
2018-05-04T06:20:49.836Z,67.05
2018-05-04T06:23:18.384Z,66.56
2018-05-04T06:25:46.806Z,65.43
2018-05-04T06:28:15.326Z,64.11
2018-05-04T06:30:43.798Z,63.34
2018-05-04T06:33:12.193Z,62.01
2018-05-04T06:35:40.722Z,62.91
2018-05-04T06:38:10.069Z,64.84
2018-05-04T06:40:38.444Z,64.11
2018-05-04T06:43:07.593Z,63.98
2018-05-04T06:45:35.972Z,62.99
2018-05-04T06:48:04.298Z,62.62
2018-05-04T06:50:32.680Z,60.46
2018-05-04T06:53:01.107Z,58.64
2018-05-04T06:55:29.507Z,57.03
2018-05-04T06:57:58.297Z,55.60
2018-05-04T07:00:26.703Z,55.84
2018-05-04T07:02:55.054Z,56.35
2018-05-04T07:05:23.841Z,55.86
2018-05-04T07:07:52.191Z,54.37
2018-05-04T07:10:20.676Z,51.96
2018-05-04T07:12:49.438Z,52.98
2018-05-04T07:15:18.044Z,53.13
2018-05-04T07:17:46.396Z,53.15
2018-05-04T07:20:15.137Z,53.25
2018-05-04T07:22:43.577Z,52.48
2018-05-04T07:25:11.985Z,52.63
2018-05-04T07:27:40.346Z,51.86
2018-05-04T07:30:08.699Z,51.82
2018-05-04T07:32:37.121Z,50.41
2018-05-04T07:35:05.467Z,48.81
2018-05-04T07:37:33.817Z,49.00
2018-05-04T07:40:02.139Z,49.10
2018-05-04T07:42:30.555Z,50.55
2018-05-04T07:44:58.897Z,49.81
2018-05-04T07:47:27.218Z,49.39
2018-05-04T07:49:55.624Z,48.25
2018-05-04T07:52:23.956Z,47.97
2018-05-04T07:54:52.275Z,45.68
2018-05-04T07:57:21.564Z,46.26
2018-05-04T07:59:49.925Z,45.78
2018-05-04T08:02:18.768Z,44.64
2018-05-04T08:04:47.214Z,45.19
2018-05-04T08:07:15.822Z,44.30
2018-05-04T08:09:44.217Z,44.64
2018-05-04T08:12:13.093Z,45.62
2018-05-04T08:14:41.436Z,44.39
2018-05-04T08:17:09.763Z,43.62
2018-05-04T08:19:38.367Z,43.57
2018-05-04T08:22:06.686Z,43.59
2018-05-04T08:24:35.015Z,43.53
2018-05-04T08:27:03.532Z,43.41
2018-05-04T08:29:32.817Z,41.42
2018-05-04T08:32:01.141Z,40.56
2018-05-04T08:34:29.517Z,40.75
2018-05-04T08:36:57.853Z,41.42
2018-05-04T08:39:26.184Z,41.93
2018-05-04T08:41:55.294Z,44.56
2018-05-04T08:44:23.624Z,43.84
2018-05-04T08:46:52.082Z,44.20
2018-05-04T08:49:20.508Z,44.89
2018-05-04T08:51:49.021Z,44.84
2018-05-04T08:54:17.488Z,44.53
2018-05-04T08:56:46.802Z,44.93
2018-05-04T08:59:15.574Z,43.68
2018-05-04T09:01:46.760Z,43.04
2018-05-04T09:04:15.198Z,43.57
2018-05-04T09:06:43.634Z,42.12
2018-05-04T09:09:12.145Z,40.57
2018-05-04T09:11:41.115Z,39.67
2018-05-04T09:14:09.466Z,39.68
2018-05-04T09:16:37.839Z,40.06
2018-05-04T09:19:06.980Z,40.70
2018-05-04T09:21:35.404Z,38.83
2018-05-04T09:24:03.765Z,39.69
2018-05-04T09:26:32.158Z,37.92
2018-05-04T09:29:00.545Z,35.85
2018-05-04T09:31:28.898Z,32.63
2018-05-04T09:33:58.154Z,32.32
2018-05-04T09:36:26.881Z,30.49
2018-05-04T09:38:55.219Z,29.78
2018-05-04T09:41:24.287Z,28.82
2018-05-04T09:43:53.449Z,27.80
2018-05-04T09:46:21.931Z,27.55
2018-05-04T09:48:50.313Z,26.87
2018-05-04T09:51:18.690Z,28.62
2018-05-04T09:53:47.049Z,28.18
2018-05-04T09:56:15.473Z,27.70
2018-05-04T09:58:43.869Z,29.38
2018-05-04T10:01:12.316Z,33.84
2018-05-04T10:03:40.745Z,33.35
2018-05-04T10:06:09.082Z,33.64
2018-05-04T10:08:37.428Z,34.03
2018-05-04T10:11:05.802Z,34.46
2018-05-04T10:13:34.149Z,34.65
2018-05-04T10:16:02.600Z,32.20
2018-05-04T10:18:32.011Z,32.84
2018-05-04T10:21:00.337Z,33.67
2018-05-04T10:23:28.696Z,32.19
2018-05-04T10:25:57.102Z,29.47
2018-05-04T10:28:25.514Z,27.35
2018-05-04T10:30:53.944Z,26.45
2018-05-04T10:33:22.373Z,29.21
2018-05-04T10:35:50.759Z,29.77
2018-05-04T10:38:19.154Z,29.93
2018-05-04T10:40:47.539Z,32.42
2018-05-04T10:43:15.904Z,31.69
2018-05-04T10:45:44.284Z,29.50
2018-05-04T10:48:13.289Z,27.12
2018-05-04T10:50:41.671Z,27.37
2018-05-04T10:53:10.023Z,26.42
2018-05-04T10:55:38.404Z,26.65
2018-05-04T10:58:06.749Z,24.16
2018-05-04T11:00:35.159Z,25.63
2018-05-04T11:03:03.658Z,25.92
2018-05-04T11:05:31.971Z,26.72
2018-05-04T11:08:00.293Z,26.04
2018-05-04T11:10:28.917Z,24.80
2018-05-04T11:12:57.299Z,24.96
2018-05-04T11:15:25.718Z,24.84
2018-05-04T11:17:54.017Z,24.85
2018-05-04T11:20:22.533Z,24.96
2018-05-04T11:22:50.898Z,25.93
2018-05-04T11:25:20.611Z,27.59
2018-05-04T11:27:48.955Z,26.94
2018-05-04T11:30:17.302Z,31.06
2018-05-04T11:32:46.648Z,31.48
2018-05-04T11:35:15.339Z,35.00
2018-05-04T11:37:43.836Z,34.91
2018-05-04T11:40:13.907Z,35.23
2018-05-04T11:42:42.286Z,32.94
2018-05-04T11:45:10.628Z,32.58
2018-05-04T11:47:39.007Z,28.66
2018-05-04T11:50:07.362Z,28.60
2018-05-04T11:52:35.696Z,30.89
2018-05-04T11:55:04.113Z,33.06
2018-05-04T11:57:32.452Z,32.45
2018-05-04T12:00:00.769Z,31.98
2018-05-04T12:02:30.039Z,34.17
2018-05-04T12:04:58.354Z,36.98
2018-05-04T12:07:26.840Z,38.15
2018-05-04T12:09:55.420Z,36.56
2018-05-04T12:12:24.845Z,34.29
2018-05-04T12:14:53.309Z,33.17
2018-05-04T12:17:23.278Z,32.97
2018-05-04T12:19:51.702Z,32.92
2018-05-04T12:22:20.781Z,31.59
2018-05-04T12:24:49.525Z,31.89
2018-05-04T12:27:17.957Z,31.81
2018-05-04T12:29:46.334Z,30.21
2018-05-04T12:32:14.764Z,30.26
2018-05-04T12:34:43.190Z,31.81
2018-05-04T12:37:11.956Z,29.94
2018-05-04T12:39:40.900Z,30.67
2018-05-04T12:42:09.246Z,33.00
2018-05-04T12:44:37.562Z,32.05
2018-05-04T12:47:06.004Z,29.83
2018-05-04T12:49:34.425Z,29.90
2018-05-04T12:52:02.765Z,31.51
2018-05-04T12:54:31.515Z,29.59
2018-05-04T12:56:59.835Z,32.48
2018-05-04T12:59:28.256Z,33.41
2018-05-04T13:01:56.609Z,32.45
2018-05-04T13:04:25.156Z,30.94
2018-05-04T13:06:53.452Z,29.94
2018-05-04T13:09:21.911Z,29.06
2018-05-04T13:11:50.395Z,29.61
2018-05-04T13:14:19.757Z,30.79
2018-05-04T13:16:48.217Z,29.38
2018-05-04T13:19:17.192Z,27.99
2018-05-04T13:21:45.552Z,28.46
2018-05-04T13:24:14.125Z,29.31
2018-05-04T13:26:42.569Z,28.43
2018-05-04T13:29:10.993Z,29.88
2018-05-04T13:31:39.345Z,29.19
2018-05-04T13:34:07.694Z,29.72
2018-05-04T13:36:36.073Z,29.24
2018-05-04T13:39:04.509Z,27.83
2018-05-04T13:41:32.834Z,26.78
2018-05-04T13:44:01.190Z,29.17
2018-05-04T13:46:29.569Z,29.04
2018-05-04T13:48:57.887Z,28.33
2018-05-04T13:51:26.332Z,28.03
2018-05-04T13:53:55.599Z,28.43
2018-05-04T13:56:24.138Z,27.63
2018-05-04T13:58:52.467Z,26.38
2018-05-04T14:01:20.881Z,29.36
2018-05-04T14:03:49.383Z,31.50
2018-05-04T14:06:17.751Z,31.31
2018-05-04T14:08:46.486Z,28.92
2018-05-04T14:11:14.852Z,28.10
2018-05-04T14:13:43.659Z,26.71
2018-05-04T14:16:12.022Z,25.88
2018-05-04T14:21:15.617Z,29.60
2018-05-04T14:23:44.007Z,31.21
2018-05-04T14:26:12.378Z,33.13
2018-05-04T14:28:40.745Z,34.34
2018-05-04T14:31:09.074Z,34.96
2018-05-04T14:33:37.433Z,33.76
2018-05-04T14:36:05.877Z,32.17
2018-05-04T14:38:34.195Z,30.61
2018-05-04T14:41:02.545Z,29.32
2018-05-04T14:43:31.621Z,29.44
2018-05-04T14:45:59.987Z,29.61
2018-05-04T14:48:28.300Z,31.31
2018-05-04T14:50:57.575Z,29.47
2018-05-04T14:53:25.889Z,28.97
2018-05-04T14:55:54.243Z,29.98
2018-05-04T14:58:23.218Z,30.11
2018-05-04T15:00:51.700Z,32.32
2018-05-04T15:03:20.192Z,31.93
2018-05-04T15:05:48.653Z,29.90
2018-05-04T15:08:16.980Z,30.26
2018-05-04T15:10:45.522Z,29.71
2018-05-04T15:13:14.209Z,32.20
2018-05-04T15:15:42.598Z,30.97
2018-05-04T15:18:11.065Z,29.22
2018-05-04T15:20:40.305Z,30.13
2018-05-04T15:23:10.224Z,29.41
2018-05-04T15:25:38.578Z,29.39
2018-05-04T15:28:07.593Z,29.30
2018-05-04T15:30:35.936Z,28.12
2018-05-04T15:33:04.284Z,28.99
2018-05-04T15:35:32.668Z,28.09
2018-05-04T15:38:00.998Z,29.90
2018-05-04T15:40:29.452Z,30.71
2018-05-04T15:42:58.518Z,31.26
2018-05-04T15:45:26.905Z,32.79
2018-05-04T15:47:55.257Z,33.47
2018-05-04T15:50:29.261Z,32.49
2018-05-04T15:52:57.623Z,32.78
2018-05-04T15:55:25.977Z,33.27
2018-05-04T15:57:55.132Z,32.40
2018-05-04T16:00:23.488Z,33.29
2018-05-04T16:02:51.895Z,33.89
2018-05-04T16:05:20.282Z,34.67
2018-05-04T16:07:48.697Z,36.28
2018-05-04T16:10:17.089Z,38.15
2018-05-04T16:12:46.893Z,38.67
2018-05-04T16:15:15.391Z,39.32
2018-05-04T16:17:43.903Z,39.43
2018-05-04T16:20:12.400Z,40.31
2018-05-04T16:22:40.863Z,40.63
2018-05-04T16:25:09.292Z,40.61
2018-05-04T16:27:38.278Z,40.85
2018-05-04T16:30:06.600Z,41.32
2018-05-04T16:32:34.989Z,40.64
2018-05-04T16:35:03.454Z,40.58
2018-05-04T16:37:31.790Z,40.65
2018-05-04T16:40:00.123Z,41.08
2018-05-04T16:42:28.549Z,40.82
2018-05-04T16:44:56.954Z,41.03
2018-05-04T16:47:25.423Z,41.22
2018-05-04T16:49:53.847Z,41.20
2018-05-04T16:52:22.230Z,41.15
2018-05-04T16:54:50.614Z,40.92
2018-05-04T16:57:20.325Z,40.86
2018-05-04T16:59:48.805Z,41.13
2018-05-04T17:02:17.191Z,41.58
2018-05-04T17:04:45.591Z,41.62
2018-05-04T17:07:14.031Z,41.35
2018-05-04T17:09:42.498Z,41.26
2018-05-04T17:12:10.897Z,41.72
2018-05-04T17:14:39.222Z,41.46
2018-05-04T17:17:07.562Z,41.73
2018-05-04T17:19:36.739Z,41.16
2018-05-04T17:22:05.180Z,41.16
2018-05-04T17:24:33.474Z,41.28
2018-05-04T17:27:02.599Z,41.88
2018-05-04T17:29:30.963Z,41.80
2018-05-04T17:32:00.998Z,41.71
2018-05-04T17:34:30.903Z,42.54
2018-05-04T17:36:59.437Z,42.59
2018-05-04T17:39:27.869Z,42.59
2018-05-04T17:41:56.690Z,42.63
2018-05-04T17:44:25.646Z,42.18
2018-05-04T17:46:54.194Z,42.61
2018-05-04T17:49:22.959Z,42.85
2018-05-04T17:51:51.531Z,42.88
2018-05-04T17:54:21.009Z,43.20
2018-05-04T17:56:49.418Z,43.10
2018-05-04T17:59:17.803Z,43.59
2018-05-04T18:01:46.287Z,43.68
2018-05-04T18:04:16.002Z,42.25
2018-05-04T18:06:45.204Z,41.40
2018-05-04T18:09:13.792Z,40.92
2018-05-04T18:11:42.515Z,41.64
2018-05-04T18:14:10.896Z,42.27
2018-05-04T18:16:39.214Z,43.03
2018-05-04T18:19:07.595Z,43.76
2018-05-04T18:21:35.957Z,44.05
2018-05-04T18:24:04.300Z,44.54
2018-05-04T18:26:32.653Z,45.00
2018-05-04T18:29:00.986Z,45.57
2018-05-04T18:31:29.331Z,45.49
2018-05-04T18:33:57.715Z,45.80
2018-05-04T18:36:26.095Z,45.55
2018-05-04T18:38:54.428Z,45.93
2018-05-04T18:41:22.842Z,46.21
2018-05-04T18:43:51.266Z,45.87
2018-05-04T18:46:19.862Z,46.01
2018-05-04T18:48:48.660Z,45.59
2018-05-04T18:51:17.292Z,46.18
2018-05-04T18:53:45.683Z,46.12
2018-05-04T18:56:14.833Z,46.69
2018-05-04T18:58:43.463Z,46.84
2018-05-04T19:01:12.501Z,46.83
2018-05-04T19:03:40.961Z,47.03
2018-05-04T19:06:09.321Z,47.16
2018-05-04T19:08:37.675Z,47.48
2018-05-04T19:11:06.132Z,47.19
2018-05-04T19:13:34.448Z,47.72
2018-05-04T19:16:02.795Z,47.17
2018-05-04T19:18:31.998Z,47.21
2018-05-04T19:21:00.324Z,46.82
2018-05-04T19:23:28.685Z,46.92
2018-05-04T19:25:57.424Z,46.95
2018-05-04T19:28:25.841Z,47.03
2018-05-04T19:30:54.419Z,46.73
2018-05-04T19:33:23.662Z,47.08
2018-05-04T19:35:52.100Z,46.53
2018-05-04T19:38:20.593Z,46.64
2018-05-04T19:40:49.326Z,46.17
2018-05-04T19:43:17.753Z,46.42
2018-05-04T19:45:46.233Z,46.83
2018-05-04T19:48:15.053Z,47.00
2018-05-04T19:50:43.657Z,46.50
2018-05-04T19:53:12.114Z,47.02
2018-05-04T19:55:40.525Z,46.74
2018-05-04T19:58:08.873Z,46.74
2018-05-04T20:00:37.225Z,47.10
2018-05-04T20:03:05.766Z,47.12
2018-05-04T20:05:34.095Z,47.25
2018-05-04T20:08:02.465Z,47.05
2018-05-04T20:10:30.892Z,47.22
2018-05-04T20:12:59.280Z,47.12
2018-05-04T20:15:27.609Z,47.16
2018-05-04T20:17:56.703Z,47.31
2018-05-04T20:20:25.072Z,47.27
2018-05-04T20:22:53.524Z,47.42
2018-05-04T20:25:21.909Z,47.80
2018-05-04T20:27:50.337Z,47.44
2018-05-04T20:30:19.273Z,47.84
2018-05-04T20:32:48.595Z,48.09
2018-05-04T20:35:17.026Z,48.08
2018-05-04T20:37:45.965Z,48.02
2018-05-04T20:40:14.719Z,48.25
2018-05-04T20:42:43.540Z,48.58
2018-05-04T20:45:12.556Z,48.59
2018-05-04T20:47:41.090Z,48.25
2018-05-04T20:50:09.469Z,49.05
2018-05-04T20:52:37.814Z,50.03
2018-05-04T20:55:06.476Z,50.20
2018-05-04T20:57:34.828Z,51.14
2018-05-04T21:00:03.151Z,51.86
2018-05-04T21:02:31.546Z,52.10
2018-05-04T21:04:59.886Z,52.52
2018-05-04T21:07:28.206Z,53.05
2018-05-04T21:09:56.740Z,53.55
2018-05-04T21:12:26.096Z,53.74
2018-05-04T21:14:54.469Z,53.71
2018-05-04T21:17:22.952Z,54.23
2018-05-04T21:19:51.497Z,54.35
2018-05-04T21:22:19.905Z,54.69
2018-05-04T21:24:49.534Z,54.69
2018-05-04T21:27:18.015Z,54.83
2018-05-04T21:29:46.628Z,54.92
2018-05-04T21:32:15.157Z,55.36
2018-05-04T21:34:43.540Z,55.32
2018-05-04T21:37:11.869Z,55.56
2018-05-04T21:39:40.234Z,55.91
2018-05-04T21:42:08.716Z,56.41
2018-05-04T21:44:37.039Z,57.29
2018-05-04T21:47:05.458Z,57.06
2018-05-04T21:49:33.799Z,57.09
2018-05-04T21:52:02.122Z,57.26
2018-05-04T21:54:30.482Z,57.92
2018-05-04T21:56:58.837Z,57.90
2018-05-04T21:59:27.190Z,58.37
2018-05-04T22:01:55.733Z,58.43
2018-05-04T22:04:24.122Z,58.52
2018-05-04T22:06:52.461Z,58.85
2018-05-04T22:09:20.881Z,58.99
2018-05-04T22:11:49.313Z,58.84
2018-05-04T22:14:17.712Z,58.83
2018-05-04T22:16:46.736Z,58.92
2018-05-04T22:19:15.131Z,59.10
2018-05-04T22:21:43.838Z,59.51
2018-05-04T22:24:13.005Z,59.61
2018-05-04T22:26:41.345Z,59.80
2018-05-04T22:29:09.705Z,60.02
2018-05-04T22:31:38.219Z,60.05
2018-05-04T22:34:06.579Z,59.79
2018-05-04T22:36:34.930Z,59.92
2018-05-04T22:39:05.100Z,60.19
2018-05-04T22:41:33.462Z,60.11
2018-05-04T22:44:01.870Z,60.75
2018-05-04T22:46:30.237Z,61.26
2018-05-04T22:48:58.604Z,61.56
2018-05-04T22:51:27.008Z,61.62
2018-05-04T22:53:56.106Z,61.65
2018-05-04T22:56:24.453Z,61.37
2018-05-04T23:01:44.472Z,62.17
2018-05-04T23:04:12.871Z,62.69
2018-05-04T23:06:41.206Z,63.52
2018-05-04T23:09:09.579Z,63.86
2018-05-04T23:11:37.878Z,63.89
2018-05-04T23:14:06.190Z,64.12
2018-05-04T23:16:34.538Z,64.20
2018-05-04T23:19:02.894Z,64.26
2018-05-04T23:21:31.221Z,64.14
2018-05-04T23:23:59.538Z,64.08
2018-05-04T23:26:27.861Z,63.64
2018-05-04T23:28:56.194Z,63.84
2018-05-04T23:31:24.901Z,63.80
2018-05-04T23:33:53.245Z,63.90
2018-05-04T23:36:21.674Z,64.67
2018-05-04T23:38:50.437Z,65.29
2018-05-04T23:41:20.046Z,65.93
2018-05-04T23:43:48.424Z,66.41
2018-05-04T23:46:17.538Z,66.39
2018-05-04T23:48:46.088Z,66.75
2018-05-04T23:51:15.708Z,66.84
2018-05-04T23:53:46.515Z,67.32
2018-05-04T23:56:15.886Z,67.73
2018-05-04T23:58:44.369Z,67.89
